Terminal Aerodrome Forecast
Issued by NWS Sterling, VA

Current Version | Previous Version | Text Only | Print | Product List | Glossary Off
Versions: 1 2 3 4 5 6 7 8 9 10 11 12 13

000
FTUS41 KLWX 252320
TAFMRB
TAF
KMRB 252320Z 2600/2624 VRB04KT P6SM FEW050 SCT200
     FM260700 VRB03KT 5SM BR FEW050 SCT200
     FM261200 28005KT P6SM FEW050 SCT200
     FM261400 31008G16KT P6SM FEW050 SCT200
     FM262300 VRB04KT P6SM FEW200=

USA.gov is the U.S. government's official web portal to all federal, state and local government web resources and services.